Time;durP1;ratioP1;P1;durP2;ratioP2;P2;SDS_P1;SDS_P2;PMS_P1;PMS_P2;Temp;Humidity;BMP_temperature;BMP_pressure;BME280_temperature;BME280_humidity;BME280_pressure;Samples;Min_cycle;Max_cycle;Signal;HPM_P1;HPM_P2
2021/12/11 00:00:55;;;;;;;22.70;18.43;;;1.90;98.30;;;0.32;98.32;96503.13;5017360;28;20959;-68
2021/12/11 00:03:26;;;;;;;24.10;18.47;;;1.90;97.60;;;0.28;99.15;96502.69;5018961;28;20486;-67
2021/12/11 00:06:05;;;;;;;21.43;17.67;;;1.90;98.90;;;0.32;98.83;96508.44;5020190;28;20503;-68
2021/12/11 00:08:34;;;;;;;23.77;18.00;;;1.90;98.80;;;0.23;98.96;96509.56;5012990;28;20520;-68
2021/12/11 00:11:07;;;;;;;24.37;18.60;;;1.90;98.20;;;0.33;99.17;96519.88;5025961;28;20533;-68
2021/12/11 00:13:38;;;;;;;21.90;17.10;;;1.90;99.50;;;0.35;99.25;96520.50;5019875;28;20820;-68
2021/12/11 00:16:09;;;;;;;21.47;17.27;;;1.90;98.70;;;0.36;98.77;96522.16;5018068;28;21022;-68
2021/12/11 00:18:37;;;;;;;21.50;17.00;;;2.00;97.80;;;0.37;98.97;96531.78;5014917;28;20553;-68
2021/12/11 00:21:10;;;;;;;24.07;16.57;;;2.00;98.30;;;0.34;98.70;96529.50;5022472;28;20463;-68
2021/12/11 00:23:41;;;;;;;21.60;17.23;;;2.00;97.60;;;0.41;98.85;96538.38;5023120;28;20507;-70
2021/12/11 00:26:12;;;;;;;20.50;15.50;;;2.00;98.20;;;0.36;98.91;96535.44;5023150;28;20551;-67
2021/12/11 00:28:47;;;;;;;20.80;15.97;;;2.00;97.20;;;0.38;98.66;96538.72;5018116;28;20475;-68
2021/12/11 00:31:15;;;;;;;22.17;15.40;;;2.00;97.40;;;0.46;98.26;96546.59;5018160;28;20538;-69
2021/12/11 00:33:42;;;;;;;20.80;15.93;;;2.00;98.00;;;0.40;98.05;96540.19;5022150;28;20455;-69
2021/12/11 00:36:13;;;;;;;19.00;15.60;;;2.00;97.70;;;0.39;98.04;96556.34;5027155;28;20482;-68
2021/12/11 00:38:42;;;;;;;19.13;15.30;;;2.00;96.80;;;0.51;98.55;96560.16;5028579;28;20582;-69
2021/12/11 00:41:14;;;;;;;18.70;15.60;;;2.00;97.80;;;0.46;98.29;96561.75;5041738;28;20985;-69
2021/12/11 00:43:43;;;;;;;17.50;13.93;;;2.10;97.10;;;0.47;98.32;96577.50;5031979;28;20463;-68
2021/12/11 00:46:14;;;;;;;19.23;15.43;;;2.10;97.50;;;0.66;97.58;96577.91;5040872;28;20536;-69
2021/12/11 00:48:42;;;;;;;16.97;13.50;;;2.20;95.90;;;0.56;97.81;96584.34;5026832;28;20462;-67
2021/12/11 00:51:12;;;;;;;17.33;13.23;;;2.10;95.60;;;0.50;98.10;96585.09;5016340;28;20452;-68
2021/12/11 00:53:43;;;;;;;14.40;12.13;;;2.10;96.50;;;0.64;97.67;96594.06;5026066;28;20455;-69
2021/12/11 00:56:18;;;;;;;17.20;13.23;;;2.10;96.40;;;0.58;97.34;96580.69;5019161;28;20476;-67
2021/12/11 00:58:50;;;;;;;16.87;12.83;;;2.10;95.90;;;0.65;96.76;96597.50;5015452;28;20470;-69
2021/12/11 01:01:22;;;;;;;14.93;13.03;;;2.20;94.40;;;0.55;97.48;96606.63;5018777;28;20778;-69
2021/12/11 01:03:56;;;;;;;14.20;11.80;;;2.10;95.50;;;0.68;97.20;96613.09;5022625;28;20941;-68
2021/12/11 01:06:26;;;;;;;15.00;11.70;;;2.20;95.80;;;0.59;96.64;96615.03;5023821;28;20456;-68
2021/12/11 01:08:58;;;;;;;14.23;11.73;;;2.20;94.40;;;0.59;97.34;96619.53;5025263;28;20489;-67
2021/12/11 01:11:32;;;;;;;16.13;12.13;;;2.20;95.10;;;0.43;97.86;96621.41;5024075;28;20495;-69
2021/12/11 01:14:12;;;;;;;14.10;11.00;;;2.10;95.50;;;0.50;97.69;96622.28;5025245;28;20633;-68
2021/12/11 01:16:42;;;;;;;15.33;11.60;;;2.10;96.90;;;0.55;98.11;96619.09;5020599;28;20478;-68
2021/12/11 01:19:16;;;;;;;13.20;11.37;;;2.00;97.20;;;0.36;98.00;96628.44;5023830;28;20502;-68
2021/12/11 01:21:55;;;;;;;12.87;10.30;;;2.00;96.90;;;0.33;99.09;96636.78;5027713;28;21159;-68
2021/12/11 01:24:30;;;;;;;14.30;11.40;;;1.90;98.00;;;0.28;98.61;96640.84;5043568;28;20798;-67
2021/12/11 01:27:03;;;;;;;16.07;11.73;;;1.90;97.20;;;0.30;99.20;96645.94;5024989;28;20548;-68
2021/12/11 01:29:33;;;;;;;13.30;10.53;;;1.90;98.20;;;0.45;98.65;96656.59;5026668;28;20475;-67
2021/12/11 01:32:02;;;;;;;15.53;11.73;;;2.00;99.20;;;0.51;98.11;96650.50;5023423;28;20460;-68
2021/12/11 01:34:31;;;;;;;12.80;10.10;;;2.10;97.80;;;0.58;98.00;96649.78;5020522;28;20961;-69
2021/12/11 01:37:00;;;;;;;13.00;10.13;;;2.10;97.40;;;0.59;97.53;96659.41;5025854;28;20497;-67
2021/12/11 01:39:36;;;;;;;12.57;10.20;;;2.10;96.60;;;0.51;97.77;96671.78;5028800;28;20553;-68
2021/12/11 01:42:17;;;;;;;12.00;10.50;;;2.10;95.70;;;0.71;96.88;96671.22;5024715;28;20561;-68
2021/12/11 01:44:46;;;;;;;13.03;10.10;;;2.20;95.30;;;0.59;97.09;96678.03;5023462;28;20638;-68
2021/12/11 01:47:18;;;;;;;12.00;9.70;;;2.10;95.30;;;0.55;97.23;96683.72;5030950;28;20954;-68
2021/12/11 01:49:52;;;;;;;12.50;10.47;;;2.10;95.30;;;0.62;97.00;96683.81;5023642;28;21030;-67
2021/12/11 01:52:33;;;;;;;11.67;9.43;;;2.10;95.50;;;0.57;96.81;96688.81;5023215;28;20955;-67
2021/12/11 01:55:01;;;;;;;11.37;9.33;;;2.10;94.40;;;0.56;97.26;96696.00;5023857;28;20977;-68
2021/12/11 01:57:31;;;;;;;12.20;10.10;;;2.10;95.40;;;0.64;97.00;96707.53;5027655;28;20542;-68
2021/12/11 02:00:08;;;;;;;12.73;10.23;;;2.10;96.10;;;0.66;96.97;96711.66;5022497;28;20485;-68
2021/12/11 02:02:39;;;;;;;12.93;9.70;;;2.10;95.80;;;0.58;97.63;96716.25;5030051;28;20487;-68
2021/12/11 02:05:10;;;;;;;10.43;9.20;;;2.20;95.90;;;0.72;97.54;96720.72;5024588;28;20471;-69
2021/12/11 02:07:43;;;;;;;11.70;10.03;;;2.20;96.50;;;0.61;97.18;96729.16;5022489;28;20476;-68
2021/12/11 02:10:20;;;;;;;13.50;10.83;;;2.10;95.50;;;0.56;97.48;96725.22;5025277;28;20463;-68
2021/12/11 02:12:50;;;;;;;11.60;9.60;;;2.10;96.30;;;0.87;97.18;96744.63;5025188;28;20554;-69
2021/12/11 02:15:27;;;;;;;12.30;10.50;;;2.20;97.10;;;0.87;96.31;96738.50;5019692;28;20490;-69
2021/12/11 02:18:00;;;;;;;11.57;10.00;;;2.30;95.40;;;0.82;96.28;96733.75;5038926;28;20455;-69
2021/12/11 02:20:39;;;;;;;11.43;9.80;;;2.20;95.20;;;0.67;95.89;96739.91;5034522;28;20978;-68
2021/12/11 02:23:08;;;;;;;12.03;10.07;;;2.20;94.40;;;0.79;96.12;96750.06;5031278;28;20545;-68
2021/12/11 02:25:39;;;;;;;11.67;9.57;;;2.20;94.70;;;0.59;96.95;96757.78;5021126;28;20459;-68
2021/12/11 02:28:13;;;;;;;11.60;10.00;;;2.20;94.40;;;0.49;97.59;96758.84;5023254;28;20558;-68
2021/12/11 02:30:46;;;;;;;12.97;10.13;;;2.10;95.50;;;0.77;95.91;96765.38;5023460;28;21123;-67
2021/12/11 02:33:22;;;;;;;10.83;9.37;;;2.20;94.70;;;0.70;96.25;96770.63;5036032;28;20475;-71
2021/12/11 02:35:54;;;;;;;10.47;9.23;;;2.20;93.80;;;0.69;96.08;96772.44;5019371;28;20902;-68
2021/12/11 02:38:30;;;;;;;10.90;9.37;;;2.20;94.20;;;0.62;96.84;96773.34;5018286;28;20491;-67
2021/12/11 02:41:04;;;;;;;13.23;9.53;;;2.10;95.10;;;0.62;97.44;96779.50;5020532;28;20477;-67
2021/12/11 02:43:40;;;;;;;13.00;10.57;;;2.10;95.90;;;0.53;97.63;96777.94;5021287;28;20559;-68
2021/12/11 02:46:16;;;;;;;12.90;10.17;;;2.10;96.10;;;0.70;97.03;96781.25;5021444;28;20549;-68
2021/12/11 02:48:48;;;;;;;10.90;9.20;;;2.20;96.10;;;0.59;96.61;96779.03;5023518;28;20572;-67
2021/12/11 02:51:23;;;;;;;14.03;11.07;;;2.10;95.20;;;0.50;97.36;96792.41;5021666;28;20495;-67
2021/12/11 02:53:57;;;;;;;11.93;10.27;;;2.10;95.10;;;0.68;96.89;96801.84;5026383;28;20470;-67
2021/12/11 02:56:32;;;;;;;14.93;12.10;;;2.10;96.00;;;0.71;96.94;96804.16;5025442;28;20456;-67
2021/12/11 02:59:07;;;;;;;11.93;10.20;;;2.20;95.50;;;0.67;96.59;96803.69;5026715;28;20534;-67
2021/12/11 03:01:43;;;;;;;13.97;10.57;;;2.10;94.90;;;0.58;96.35;96788.03;5022105;28;20469;-67
2021/12/11 03:04:19;;;;;;;14.33;11.80;;;2.20;94.00;;;0.61;97.12;96814.22;5024762;28;20519;-67
2021/12/11 03:06:49;;;;;;;12.10;10.23;;;2.10;94.50;;;0.52;97.14;96810.84;5038295;28;20461;-68
2021/12/11 03:09:21;;;;;;;14.00;10.43;;;2.10;95.60;;;0.52;97.65;96814.31;5037696;28;20466;-68
2021/12/11 03:11:49;;;;;;;16.07;12.03;;;2.10;95.60;;;0.64;97.63;96822.69;5017609;28;20454;-68
2021/12/11 03:14:18;;;;;;;14.43;11.70;;;2.10;96.40;;;0.66;97.07;96827.81;5024122;28;20541;-67
2021/12/11 03:16:50;;;;;;;15.00;11.13;;;2.20;96.10;;;0.47;96.62;96806.06;5015847;28;20474;-68
2021/12/11 03:19:20;;;;;;;14.20;11.70;;;2.10;94.90;;;0.64;96.35;96835.13;5048033;28;20459;-68
2021/12/11 03:21:49;;;;;;;14.17;11.00;;;2.10;94.40;;;0.50;96.78;96840.25;5021773;28;20480;-68
2021/12/11 03:24:18;;;;;;;14.10;10.67;;;2.10;94.40;;;0.56;97.22;96842.19;5026427;28;20463;-69
2021/12/11 03:26:50;;;;;;;13.93;10.90;;;2.10;95.60;;;0.58;96.99;96851.81;5020382;28;20542;-69
2021/12/11 03:29:17;;;;;;;14.97;11.70;;;2.10;95.00;;;0.49;96.94;96854.53;5017067;28;20906;-68
2021/12/11 03:31:46;;;;;;;14.63;10.97;;;2.00;94.80;;;0.51;97.01;96860.50;5017750;28;20586;-69
2021/12/11 03:34:19;;;;;;;15.73;12.07;;;2.00;95.30;;;0.54;96.86;96867.28;5028078;28;20465;-69
2021/12/11 03:36:47;;;;;;;14.47;11.23;;;2.00;95.50;;;0.52;97.41;96869.31;5022727;28;20530;-68
2021/12/11 03:39:20;;;;;;;14.03;11.77;;;2.00;95.30;;;0.53;96.56;96873.63;5019404;28;20463;-69
2021/12/11 03:41:49;;;;;;;16.47;12.27;;;2.10;95.10;;;0.39;97.79;96878.72;5014329;28;20989;-69
2021/12/11 03:44:17;;;;;;;18.67;13.40;;;1.90;96.10;;;0.41;97.12;96867.91;5034413;28;20455;-68
2021/12/11 03:46:49;;;;;;;16.07;13.53;;;2.00;96.10;;;0.35;97.11;96887.22;5019915;28;20478;-68
2021/12/11 03:49:22;;;;;;;16.33;13.10;;;2.00;94.80;;;0.46;97.77;96892.13;5032827;28;20884;-68
2021/12/11 03:51:53;;;;;;;18.07;14.60;;;2.00;96.10;;;0.46;97.06;96897.44;5017996;28;20451;-68
2021/12/11 03:54:25;;;;;;;20.20;14.83;;;2.00;95.40;;;0.50;97.27;96901.38;5016685;28;20467;-69
2021/12/11 03:56:52;;;;;;;19.60;14.40;;;2.00;96.00;;;0.43;97.74;96908.44;5017597;28;20465;-68
2021/12/11 03:59:19;;;;;;;17.30;13.23;;;2.00;96.20;;;0.64;97.48;96917.56;5019597;28;20464;-68
2021/12/11 04:01:51;;;;;;;16.30;13.37;;;2.10;97.00;;;0.47;97.24;96914.22;5020179;28;20462;-69
2021/12/11 04:04:22;;;;;;;18.93;14.10;;;2.00;94.80;;;0.52;96.93;96923.28;5029052;28;20968;-68
2021/12/11 04:06:52;;;;;;;19.63;14.30;;;2.00;95.40;;;0.33;97.73;96923.78;5023560;28;20895;-68
2021/12/11 04:09:22;;;;;;;19.73;14.63;;;1.90;95.50;;;0.18;98.01;96931.69;5023193;28;20565;-69
2021/12/11 04:11:50;;;;;;;18.93;14.83;;;1.80;96.40;;;0.27;98.07;96936.78;5023573;28;20894;-69
2021/12/11 04:14:24;;;;;;;19.77;15.77;;;1.90;96.70;;;0.16;98.12;96947.78;5021933;28;20950;-69
2021/12/11 04:16:53;;;;;;;21.00;16.53;;;1.80;97.30;;;0.04;99.18;96951.84;5020011;28;20459;-69
2021/12/11 04:19:20;;;;;;;23.50;16.90;;;1.70;98.10;;;0.04;99.59;96954.50;5027103;28;20551;-69
2021/12/11 04:21:49;;;;;;;23.97;17.53;;;1.70;99.50;;;0.03;99.44;96964.31;5021367;28;20467;-69
2021/12/11 04:24:19;;;;;;;24.67;17.90;;;1.60;99.90;;;0.01;99.78;96962.81;5023499;28;20545;-68
2021/12/11 04:26:49;;;;;;;22.57;16.97;;;1.60;99.60;;;0.09;99.50;96968.91;5040191;28;20862;-68
2021/12/11 04:29:16;;;;;;;24.83;18.20;;;1.60;99.90;;;-0.03;100.00;96970.31;5023070;28;20467;-69
2021/12/11 04:31:46;;;;;;;26.70;20.30;;;1.60;99.90;;;-0.04;100.00;96974.81;5018114;28;20478;-69
2021/12/11 04:34:17;;;;;;;27.97;20.00;;;1.50;99.90;;;0.18;99.91;96980.31;5018258;28;20452;-68
2021/12/11 04:36:52;;;;;;;25.97;19.07;;;1.70;99.90;;;0.04;99.66;96986.38;5017016;28;21318;-68
2021/12/11 04:39:23;;;;;;;30.83;20.40;;;1.60;99.90;;;-0.10;99.99;96991.41;5021808;28;21077;-69
2021/12/11 04:41:59;;;;;;;31.30;21.97;;;1.50;99.90;;;0.07;100.00;96989.53;5019167;28;20463;-68
2021/12/11 04:44:34;;;;;;;28.30;19.47;;;1.60;99.90;;;-0.02;99.54;97001.16;5025710;28;20457;-68
2021/12/11 04:47:02;;;;;;;31.73;21.73;;;1.60;99.90;;;-0.10;100.00;97007.34;5021662;28;20486;-68
2021/12/11 04:49:35;;;;;;;33.43;23.20;;;1.50;99.90;;;-0.16;100.00;97008.84;5016913;28;20471;-67
2021/12/11 04:52:11;;;;;;;29.07;20.17;;;1.50;99.90;;;-0.27;100.00;97000.44;5019202;28;20804;-68
2021/12/11 04:54:51;;;;;;;31.97;22.20;;;1.40;99.90;;;-0.06;100.00;97018.47;5024402;28;21014;-68
2021/12/11 05:00:17;;;;;;;32.43;22.00;;;1.50;99.90;;;-0.18;100.00;97026.78;5019273;28;20474;-68
2021/12/11 05:03:25;;;;;;;34.23;22.00;;;1.40;99.90;;;-0.11;100.00;97034.91;5029139;28;20441;-67
2021/12/11 05:06:04;;;;;;;31.30;20.90;;;1.50;99.90;;;-0.05;100.00;97039.53;5022249;28;20537;-68
2021/12/11 05:11:27;;;;;;;29.53;20.33;;;1.50;99.90;;;-0.06;100.00;97043.19;5008419;28;20857;-68
2021/12/11 05:13:55;;;;;;;30.20;21.17;;;1.50;99.90;;;-0.04;100.00;97057.13;5028661;28;20470;-68
2021/12/11 05:16:24;;;;;;;30.20;20.83;;;1.60;99.90;;;0.02;100.00;97060.94;5020547;28;21118;-69
2021/12/11 05:18:51;;;;;;;30.87;21.20;;;1.60;99.90;;;-0.09;100.00;97059.47;5029317;28;20465;-68
2021/12/11 05:21:22;;;;;;;31.23;21.30;;;1.50;99.90;;;0.13;100.00;97068.50;5022353;28;20558;-69
2021/12/11 05:23:51;;;;;;;26.53;18.63;;;1.60;99.90;;;0.01;100.00;97079.69;5025145;28;20474;-69
2021/12/11 05:26:20;;;;;;;30.23;20.17;;;1.60;99.90;;;-0.18;100.00;97087.06;5020559;28;20472;-68
2021/12/11 05:28:49;;;;;;;30.37;19.30;;;1.50;99.90;;;-0.24;100.00;97091.22;5024215;28;20470;-67
2021/12/11 05:31:18;;;;;;;31.97;20.33;;;1.40;99.90;;;-0.12;100.00;97096.16;5024692;28;20468;-69
2021/12/11 05:33:46;;;;;;;29.40;18.97;;;1.50;99.90;;;-0.07;100.00;97104.44;5028870;28;20464;-69
2021/12/11 05:36:18;;;;;;;28.00;19.00;;;1.50;99.90;;;-0.29;100.00;97104.19;5031766;28;20469;-68
2021/12/11 05:38:48;;;;;;;28.57;19.77;;;1.40;99.90;;;-0.17;100.00;97109.94;5029075;28;20475;-68
2021/12/11 05:41:20;;;;;;;31.80;20.07;;;1.40;99.90;;;-0.14;100.00;97112.25;5025439;28;20459;-68
2021/12/11 05:43:48;;;;;;;31.87;20.93;;;1.50;99.90;;;-0.08;100.00;97116.06;5025512;28;20458;-68
2021/12/11 05:46:18;;;;;;;29.07;18.63;;;1.50;99.90;;;-0.01;100.00;97120.53;5025773;28;20473;-70
2021/12/11 05:48:49;;;;;;;28.83;19.87;;;1.60;99.90;;;0.02;100.00;97126.50;5023630;28;20565;-68
2021/12/11 05:51:20;;;;;;;29.47;21.30;;;1.60;99.90;;;-0.12;99.99;97126.19;5020400;28;20574;-68
2021/12/11 05:53:48;;;;;;;29.20;19.37;;;1.60;99.90;;;-0.11;100.00;97129.69;5023266;28;20462;-68
2021/12/11 05:56:16;;;;;;;29.63;19.27;;;1.50;99.90;;;-0.21;100.00;97117.41;5016484;28;20581;-68
2021/12/11 05:58:56;;;;;;;26.63;18.60;;;1.50;99.90;;;-0.16;99.82;97138.16;5020323;28;20949;-68
2021/12/11 06:01:31;;;;;;;28.47;18.17;;;1.50;99.90;;;-0.06;99.90;97138.81;5019418;28;20465;-69
2021/12/11 06:04:02;;;;;;;27.87;18.43;;;1.50;99.90;;;-0.10;99.61;97142.78;5025475;28;20457;-69
2021/12/11 06:06:29;;;;;;;30.80;19.23;;;1.50;99.20;;;-0.01;99.24;97157.72;5026950;28;20451;-69
2021/12/11 06:08:57;;;;;;;24.30;17.13;;;1.50;99.00;;;0.05;99.00;97158.03;5016655;28;20468;-67
2021/12/11 06:11:24;;;;;;;29.23;17.83;;;1.60;98.50;;;0.11;98.77;97165.34;5022551;28;20474;-69
2021/12/11 06:13:51;;;;;;;27.70;19.57;;;1.60;98.40;;;0.09;98.47;97172.66;5020340;28;20561;-67
2021/12/11 06:16:18;;;;;;;23.80;16.73;;;1.60;97.10;;;0.03;98.74;97178.63;5021352;28;20501;-67
2021/12/11 06:18:47;;;;;;;31.07;18.50;;;1.60;97.50;;;-0.04;98.78;97178.47;5022772;28;20495;-68
2021/12/11 06:21:14;;;;;;;27.00;17.93;;;1.60;96.80;;;-0.09;98.73;97184.28;5032213;28;20486;-68
2021/12/11 06:23:42;;;;;;;33.20;19.60;;;1.50;96.70;;;-0.10;99.07;97187.94;5018318;28;20545;-68
2021/12/11 06:26:10;;;;;;;24.57;18.30;;;1.50;97.50;;;-0.08;98.97;97191.25;5020731;28;20553;-67
2021/12/11 06:28:37;;;;;;;28.87;19.53;;;1.50;98.20;;;-0.01;98.57;97194.91;5024605;28;20556;-68
2021/12/11 06:31:05;;;;;;;27.50;17.90;;;1.60;97.70;;;-0.08;99.39;97198.41;5026155;28;20558;-68
2021/12/11 06:33:34;;;;;;;28.50;19.67;;;1.60;98.30;;;-0.04;99.00;97208.53;5025516;28;20461;-68
2021/12/11 06:36:08;;;;;;;27.27;18.83;;;1.60;98.70;;;-0.11;99.24;97218.13;5024033;28;20534;-67
2021/12/11 06:38:39;;;;;;;29.83;20.23;;;1.50;99.10;;;0.01;99.10;97215.16;5018074;28;20477;-67
2021/12/11 06:41:11;;;;;;;26.73;18.30;;;1.60;99.40;;;-0.11;99.35;97220.78;5016285;28;20460;-68
2021/12/11 06:43:38;;;;;;;32.17;20.60;;;1.50;98.00;;;-0.02;99.35;97233.09;5022770;28;20461;-68
2021/12/11 06:46:06;;;;;;;33.63;19.70;;;1.60;98.20;;;-0.06;98.76;97239.72;5019940;28;20542;-67
2021/12/11 06:48:34;;;;;;;31.90;20.00;;;1.50;98.30;;;-0.06;99.64;97247.69;5020442;28;20528;-69
2021/12/11 06:51:05;;;;;;;30.80;19.07;;;1.60;98.90;;;-0.02;99.63;97259.66;5027505;28;20467;-68
2021/12/11 06:53:38;;;;;;;30.47;20.20;;;1.50;99.30;;;0.12;99.22;97267.94;5020646;28;20465;-68
2021/12/11 06:56:07;;;;;;;29.60;20.80;;;1.60;99.90;;;-0.02;99.14;97269.44;5020758;28;20466;-68
2021/12/11 06:58:35;;;;;;;32.63;20.40;;;1.60;98.80;;;0.13;99.65;97275.72;5013111;28;20552;-68
2021/12/11 07:01:04;;;;;;;35.80;21.67;;;1.70;99.90;;;0.15;98.92;97278.22;5024109;28;20465;-67
2021/12/11 07:03:32;;;;;;;31.60;19.97;;;1.70;98.70;;;0.23;98.85;97290.69;5024970;28;20477;-68
2021/12/11 07:05:59;;;;;;;31.70;21.67;;;1.80;97.90;;;0.12;98.61;97294.50;5025689;28;20958;-68
2021/12/11 07:08:29;;;;;;;31.27;21.13;;;1.80;96.80;;;0.08;99.08;97299.31;5022146;28;20912;-68
2021/12/11 07:10:57;;;;;;;31.87;20.43;;;1.70;97.90;;;0.15;99.36;97310.09;5023321;28;20502;-68
2021/12/11 07:13:25;;;;;;;31.40;21.00;;;1.70;98.60;;;0.24;99.35;97325.06;5024291;28;20557;-70
2021/12/11 07:15:55;;;;;;;31.27;20.60;;;1.80;99.20;;;0.20;99.23;97318.41;5019286;28;20555;-71
2021/12/11 07:18:22;;;;;;;32.63;20.20;;;1.80;98.90;;;0.15;99.32;97315.44;5023780;28;20470;-71
2021/12/11 07:20:50;;;;;;;29.97;20.77;;;1.80;98.80;;;0.10;99.39;97328.38;5021526;28;20543;-71
2021/12/11 07:23:17;;;;;;;30.13;20.60;;;1.70;99.30;;;0.11;99.91;97340.66;5020787;28;20491;-70
2021/12/11 07:25:53;;;;;;;27.97;18.80;;;1.70;99.90;;;0.18;99.72;97348.81;5021952;28;20853;-72
2021/12/11 07:28:21;;;;;;;33.03;20.03;;;1.80;99.90;;;0.19;99.74;97343.31;5022675;28;20563;-72
2021/12/11 07:30:52;;;;;;;31.93;19.43;;;1.80;99.90;;;0.67;100.00;97355.91;5016005;28;21148;-72
2021/12/11 07:33:20;;;;;;;26.87;20.00;;;2.00;99.90;;;0.51;98.99;97362.91;5021271;28;20454;-74
2021/12/11 07:35:49;;;;;;;30.37;19.17;;;2.00;99.90;;;0.37;98.34;97352.94;5028345;28;20454;-73
2021/12/11 07:38:18;;;;;;;28.90;18.83;;;2.00;96.30;;;0.74;99.34;97372.00;5022950;28;20484;-74
2021/12/11 07:40:51;;;;;;;32.63;21.30;;;2.20;99.90;;;0.61;98.67;97383.19;5020527;28;20457;-72
2021/12/11 07:43:20;;;;;;;28.13;19.23;;;2.20;98.30;;;0.40;98.63;97380.03;5030083;28;20447;-75
2021/12/11 07:45:47;;;;;;;26.87;18.30;;;2.00;96.40;;;0.39;98.43;97382.88;5032791;28;20450;-73
2021/12/11 07:48:15;;;;;;;33.23;20.43;;;2.00;96.30;;;0.45;98.90;97398.13;5025749;28;20490;-75
2021/12/11 07:50:44;;;;;;;35.97;23.33;;;2.00;98.60;;;0.52;99.44;97393.81;5019743;28;20569;-73
2021/12/11 07:53:12;;;;;;;38.97;23.37;;;2.10;99.90;;;0.46;98.09;97402.47;5029234;28;20463;-76
2021/12/11 07:55:39;;;;;;;33.53;23.83;;;2.10;97.00;;;0.44;97.87;97411.59;5037133;28;20486;-76
2021/12/11 07:58:08;;;;;;;33.10;20.87;;;2.00;96.10;;;0.43;97.91;97424.06;5039331;28;20493;-75
2021/12/11 08:00:40;;;;;;;31.83;22.07;;;2.00;95.70;;;0.44;98.21;97433.69;5032673;28;20487;-74
2021/12/11 08:03:10;;;;;;;33.63;21.27;;;2.00;97.10;;;0.33;98.80;97421.56;5021044;28;20482;-75
2021/12/11 08:05:39;;;;;;;34.93;21.57;;;2.00;97.30;;;0.50;98.45;97430.34;5024785;28;20653;-70
2021/12/11 08:08:09;;;;;;;35.90;22.00;;;2.00;97.50;;;0.50;97.37;97451.63;5020560;28;20457;-76
2021/12/11 08:10:40;;;;;;;34.30;20.57;;;2.00;95.40;;;0.49;97.86;97451.81;5035947;28;20463;-73
2021/12/11 08:13:11;;;;;;;38.47;22.60;;;2.10;95.30;;;0.48;97.95;97452.81;5025488;28;20999;-73
2021/12/11 08:15:40;;;;;;;33.60;22.57;;;2.10;95.70;;;0.53;98.07;97461.94;5019817;28;21104;-74
2021/12/11 08:18:12;;;;;;;35.03;22.30;;;2.10;96.30;;;0.46;97.45;97466.25;5023300;28;20816;-73
2021/12/11 08:20:43;;;;;;;32.73;24.30;;;2.10;95.00;;;0.53;96.93;97469.94;5026850;28;20942;-74
2021/12/11 08:23:13;;;;;;;36.83;23.60;;;2.10;95.10;;;0.54;97.36;97481.38;5021427;28;20451;-74
2021/12/11 08:25:42;;;;;;;34.80;21.90;;;2.10;94.90;;;0.31;96.89;97458.09;5023441;28;20455;-73
2021/12/11 08:28:16;;;;;;;33.20;23.20;;;2.10;94.30;;;0.47;97.14;97481.22;5019490;28;20550;-74
2021/12/11 08:30:48;;;;;;;34.80;23.50;;;2.10;94.50;;;0.46;97.28;97492.03;5017298;28;20528;-74
2021/12/11 08:33:16;;;;;;;34.27;22.57;;;2.00;94.90;;;0.46;97.33;97490.19;5026416;28;20498;-73
2021/12/11 08:35:45;;;;;;;35.40;23.50;;;2.10;94.80;;;0.51;97.03;97489.69;5044475;28;20454;-73
2021/12/11 08:38:12;;;;;;;43.73;24.87;;;2.10;94.90;;;0.53;97.05;97499.19;5025696;28;20505;-73
2021/12/11 08:40:46;;;;;;;40.40;24.13;;;2.10;94.50;;;0.56;96.40;97508.63;5027307;28;20547;-74
2021/12/11 08:43:17;;;;;;;36.97;23.47;;;2.20;94.00;;;0.61;96.25;97521.44;5024371;28;20470;-74
2021/12/11 08:46:00;;;;;;;36.63;23.90;;;2.20;93.60;;;0.72;95.90;97522.94;5017183;28;20476;-73
2021/12/11 08:48:28;;;;;;;34.40;23.50;;;2.20;93.70;;;0.65;95.54;97525.44;5021379;28;22870;-73
2021/12/11 08:51:02;;;;;;;36.60;23.40;;;2.30;92.80;;;0.69;95.70;97530.25;5030849;28;21074;-75
2021/12/11 08:53:29;;;;;;;34.53;23.80;;;2.20;92.80;;;0.93;95.42;97541.94;5021570;28;20462;-75
2021/12/11 08:55:57;;;;;;;39.33;25.13;;;2.40;93.50;;;0.94;95.26;97542.75;5029397;28;20952;-74
2021/12/11 08:58:30;;;;;;;37.23;22.27;;;2.50;92.60;;;0.84;94.95;97546.41;5022993;28;20538;-73
2021/12/11 09:01:02;;;;;;;31.83;22.20;;;2.40;92.00;;;0.69;95.39;97546.22;5022614;28;20538;-73
2021/12/11 09:03:36;;;;;;;36.77;23.60;;;2.30;92.50;;;0.83;94.66;97552.72;5026690;28;20458;-75
2021/12/11 09:06:08;;;;;;;35.53;22.70;;;2.40;92.10;;;0.79;94.96;97564.66;5031355;28;20558;-74
2021/12/11 09:08:41;;;;;;;40.00;26.20;;;2.40;92.30;;;0.91;94.07;97564.34;5021683;28;21000;-70
2021/12/11 09:11:13;;;;;;;34.03;22.90;;;2.50;91.60;;;0.91;93.93;97581.16;5024542;28;21041;-70
2021/12/11 09:13:47;;;;;;;37.93;23.27;;;2.40;91.50;;;0.79;93.79;97587.78;5022126;28;20553;-71
2021/12/11 09:16:22;;;;;;;36.07;22.17;;;2.40;91.20;;;0.82;94.72;97588.28;5015169;28;20487;-73
2021/12/11 09:18:54;;;;;;;32.93;21.73;;;2.40;91.90;;;0.91;93.87;97598.94;5021087;28;20460;-70
2021/12/11 09:21:29;;;;;;;36.83;22.67;;;2.40;91.30;;;0.93;93.31;97610.25;5029923;28;20541;-73
2021/12/11 09:24:09;;;;;;;30.60;22.43;;;2.40;91.20;;;1.06;94.28;97597.28;5022727;28;20450;-74
2021/12/11 09:26:41;;;;;;;35.70;21.97;;;2.60;92.40;;;1.04;93.46;97617.91;5031169;28;20545;-75
2021/12/11 09:29:15;;;;;;;30.70;21.13;;;2.50;90.80;;;0.94;93.46;97617.22;5009714;28;20980;-75
2021/12/11 09:31:47;;;;;;;31.03;23.13;;;2.50;90.80;;;0.96;93.94;97620.56;5033015;28;20462;-74
2021/12/11 09:34:20;;;;;;;37.23;24.63;;;2.50;91.60;;;1.02;92.48;97614.59;5027637;28;20506;-75
2021/12/11 09:36:54;;;;;;;33.10;20.53;;;2.60;90.50;;;1.02;93.02;97633.22;5023725;28;20894;-73
2021/12/11 09:39:26;;;;;;;32.80;22.20;;;2.60;90.40;;;0.95;94.69;97634.84;5025988;28;20515;-75
2021/12/11 09:41:53;;;;;;;34.87;22.03;;;2.50;91.70;;;0.93;93.54;97636.84;5044435;28;21054;-74
2021/12/11 09:44:29;;;;;;;33.90;22.60;;;2.50;90.70;;;1.09;93.94;97628.88;5031919;28;22711;-75
2021/12/11 09:47:01;;;;;;;34.40;23.20;;;2.60;91.90;;;1.24;92.51;97644.22;5028118;28;21499;-75
2021/12/11 09:49:33;;;;;;;31.80;22.60;;;2.70;90.70;;;1.17;92.60;97648.53;5026034;28;20545;-75
2021/12/11 09:52:15;;;;;;;32.87;23.23;;;2.70;90.40;;;1.04;92.48;97644.53;5029555;28;20871;-75
2021/12/11 09:54:45;;;;;;;32.10;21.33;;;2.60;89.60;;;1.16;92.60;97647.69;5028094;28;20550;-75
2021/12/11 09:57:15;;;;;;;35.30;22.30;;;2.60;90.30;;;1.06;92.37;97641.69;5031423;28;20584;-75
2021/12/11 09:59:49;;;;;;;31.30;22.03;;;2.60;90.10;;;1.23;92.41;97650.53;5027308;28;20486;-75
2021/12/11 10:02:21;;;;;;;37.03;23.53;;;2.70;90.10;;;1.25;91.98;97659.19;5031587;28;20454;-75
2021/12/11 10:04:58;;;;;;;33.90;22.83;;;2.70;89.50;;;1.36;91.88;97663.34;5020784;28;20478;-74
2021/12/11 10:07:33;;;;;;;29.57;20.93;;;2.80;89.80;;;1.32;91.06;97662.88;5026140;28;20438;-74
2021/12/11 10:10:18;;;;;;;30.00;21.67;;;2.90;88.00;;;1.38;90.36;97672.03;5019610;28;20529;-72
2021/12/11 10:12:50;;;;;;;31.60;23.00;;;2.90;86.40;;;1.37;90.80;97665.03;5043266;28;20882;-73
2021/12/11 10:15:22;;;;;;;35.20;22.97;;;2.90;87.70;;;1.45;90.64;97682.84;5024473;28;20534;-72
2021/12/11 10:17:55;;;;;;;33.10;21.90;;;2.90;86.90;;;1.47;90.89;97681.66;5024323;28;20559;-72
2021/12/11 10:20:30;;;;;;;37.17;24.53;;;3.00;87.30;;;1.59;90.16;97689.34;5021922;28;20458;-72
2021/12/11 10:23:01;;;;;;;36.33;23.40;;;3.00;86.50;;;0.94;89.66;97590.63;5047368;28;20479;-74
2021/12/11 10:25:32;;;;;;;29.87;21.10;;;3.10;85.60;;;1.33;90.28;97692.97;5035185;28;20500;-76
2021/12/11 10:28:01;;;;;;;31.13;21.73;;;2.90;85.50;;;1.25;90.62;97683.97;5028320;28;20463;-76
2021/12/11 10:30:33;;;;;;;28.80;19.97;;;2.90;86.20;;;1.28;91.18;97704.09;5026810;28;20479;-76
2021/12/11 10:33:02;;;;;;;28.47;19.70;;;2.80;88.00;;;1.21;90.96;97708.41;5031244;28;21251;-76
2021/12/11 10:35:47;;;;;;;27.97;20.03;;;2.80;87.90;;;1.32;91.55;97716.09;5031574;28;20462;-76
2021/12/11 10:38:16;;;;;;;30.73;21.30;;;2.80;89.40;;;1.24;91.44;97721.41;5028580;28;21047;-77
2021/12/11 10:40:48;;;;;;;31.83;21.70;;;2.70;88.00;;;1.33;90.64;97717.78;5023407;28;20466;-76